Time;durP1;ratioP1;P1;durP2;ratioP2;P2;SDS_P1;SDS_P2;PMS_P1;PMS_P2;Temp;Humidity;BMP_temperature;BMP_pressure;BME280_temperature;BME280_humidity;BME280_pressure;Samples;Min_cycle;Max_cycle;Signal;HPM_P1;HPM_P2
2024/01/14 00:02:01;;;;;;;12.77;7.60;;;;;;;;;;5071759;28;20676;-57
2024/01/14 00:04:27;;;;;;;11.00;7.93;;;;;;;;;;5072197;28;20488;-57
2024/01/14 00:06:53;;;;;;;16.10;8.73;;;;;;;;;;5072373;28;20442;-56
2024/01/14 00:09:19;;;;;;;12.73;8.57;;;;;;;;;;5072263;28;20199;-57
2024/01/14 00:11:45;;;;;;;12.50;8.63;;;;;;;;;;5072189;28;20288;-56
2024/01/14 00:14:11;;;;;;;15.47;9.37;;;;;;;;;;5072035;28;20865;-56
2024/01/14 00:16:37;;;;;;;12.90;9.40;;;;;;;;;;5071903;28;20432;-57
2024/01/14 00:19:05;;;;;;;14.47;9.43;;;;;;;;;;5071989;28;20803;-57
2024/01/14 00:21:31;;;;;;;13.13;8.83;;;;;;;;;;5072223;28;20200;-56
2024/01/14 00:23:57;;;;;;;10.40;8.13;;;;;;;;;;5072125;28;20477;-56
2024/01/14 00:26:24;;;;;;;13.40;8.43;;;;;;;;;;5071963;28;20200;-56
2024/01/14 00:28:51;;;;;;;14.17;8.60;;;;;;;;;;5071688;28;20449;-56
2024/01/14 00:31:17;;;;;;;12.13;8.27;;;;;;;;;;5072159;28;20491;-56
2024/01/14 00:33:43;;;;;;;14.23;8.20;;;;;;;;;;5071898;28;20442;-56
2024/01/14 00:36:10;;;;;;;12.03;7.77;;;;;;;;;;5071757;28;20629;-56
2024/01/14 00:38:36;;;;;;;12.93;8.27;;;;;;;;;;5071926;28;20438;-56
2024/01/14 00:41:02;;;;;;;12.13;8.07;;;;;;;;;;5071329;28;20855;-56
2024/01/14 00:43:28;;;;;;;14.03;7.90;;;;;;;;;;5071939;28;20681;-56
2024/01/14 00:45:54;;;;;;;12.40;8.03;;;;;;;;;;5071710;28;20430;-56
2024/01/14 00:48:20;;;;;;;10.13;6.90;;;;;;;;;;5071769;28;20230;-56
2024/01/14 00:50:46;;;;;;;11.50;7.03;;;;;;;;;;5071883;28;20238;-56
2024/01/14 00:53:14;;;;;;;8.47;6.53;;;;;;;;;;5071259;28;20235;-56
2024/01/14 00:55:40;;;;;;;11.00;7.50;;;;;;;;;;5071721;28;20206;-55
2024/01/14 00:58:06;;;;;;;10.70;6.87;;;;;;;;;;5071371;28;20525;-56
2024/01/14 01:00:32;;;;;;;9.70;6.40;;;;;;;;;;5071780;28;20521;-56
2024/01/14 01:02:58;;;;;;;8.77;6.47;;;;;;;;;;5071489;28;20244;-56
2024/01/14 01:05:24;;;;;;;10.33;5.90;;;;;;;;;;5071320;28;20725;-56
2024/01/14 01:07:50;;;;;;;11.33;6.63;;;;;;;;;;5071483;28;20316;-56
2024/01/14 01:10:17;;;;;;;11.33;6.70;;;;;;;;;;5071427;28;20532;-56
2024/01/14 01:12:43;;;;;;;14.53;6.97;;;;;;;;;;5068043;28;20235;-53
2024/01/14 01:15:10;;;;;;;9.67;6.73;;;;;;;;;;5075604;28;20441;-54
2024/01/14 01:17:36;;;;;;;10.60;6.10;;;;;;;;;;5075735;28;20302;-54
2024/01/14 01:20:03;;;;;;;8.80;5.93;;;;;;;;;;5075641;28;21011;-55
2024/01/14 01:22:29;;;;;;;10.23;5.30;;;;;;;;;;5075877;28;20433;-54
2024/01/14 01:24:55;;;;;;;12.47;5.40;;;;;;;;;;5075506;28;20607;-54
2024/01/14 01:27:22;;;;;;;15.90;6.20;;;;;;;;;;5075572;28;20579;-54
2024/01/14 01:29:49;;;;;;;12.10;6.00;;;;;;;;;;5075556;28;20653;-54
2024/01/14 01:32:15;;;;;;;12.17;5.73;;;;;;;;;;5075465;28;20919;-53
2024/01/14 01:34:43;;;;;;;9.63;5.53;;;;;;;;;;5075486;28;20433;-53
2024/01/14 01:37:09;;;;;;;11.80;5.17;;;;;;;;;;5075296;28;20249;-53
2024/01/14 01:39:35;;;;;;;9.93;5.53;;;;;;;;;;5075426;28;20446;-53
2024/01/14 01:42:01;;;;;;;10.93;5.00;;;;;;;;;;5075192;28;20221;-54
2024/01/14 01:44:28;;;;;;;10.70;5.00;;;;;;;;;;5075282;28;20924;-53
2024/01/14 01:46:55;;;;;;;11.33;4.90;;;;;;;;;;5075257;28;20203;-53
2024/01/14 01:49:21;;;;;;;8.03;4.50;;;;;;;;;;5074963;28;20450;-53
2024/01/14 01:51:47;;;;;;;8.67;4.37;;;;;;;;;;5075003;28;20438;-54
2024/01/14 01:54:15;;;;;;;9.90;4.50;;;;;;;;;;5075003;28;20941;-54
2024/01/14 01:56:41;;;;;;;8.37;4.10;;;;;;;;;;5074995;28;20426;-54
2024/01/14 01:59:07;;;;;;;10.43;4.70;;;;;;;;;;5074817;28;20528;-54
2024/01/14 02:01:35;;;;;;;9.20;4.23;;;;;;;;;;5074903;28;20438;-54
2024/01/14 02:04:02;;;;;;;7.30;4.20;;;;;;;;;;5074727;28;20484;-54
2024/01/14 02:06:28;;;;;;;7.97;3.70;;;;;;;;;;5074896;28;20509;-54
2024/01/14 02:08:54;;;;;;;9.17;3.83;;;;;;;;;;5074921;28;20442;-54
2024/01/14 02:11:20;;;;;;;7.70;4.30;;;;;;;;;;5074545;28;20468;-54
2024/01/14 02:13:46;;;;;;;9.77;3.93;;;;;;;;;;5074739;28;20191;-54
2024/01/14 02:16:12;;;;;;;8.60;4.17;;;;;;;;;;5074593;28;20448;-54
2024/01/14 02:18:39;;;;;;;11.70;4.17;;;;;;;;;;5074441;28;20495;-54
2024/01/14 02:21:06;;;;;;;8.43;3.63;;;;;;;;;;5074431;28;20199;-54
2024/01/14 02:23:35;;;;;;;7.17;3.90;;;;;;;;;;5074555;28;20492;-54
2024/01/14 02:26:02;;;;;;;6.90;3.80;;;;;;;;;;5073745;28;20437;-54
2024/01/14 02:28:28;;;;;;;7.77;3.63;;;;;;;;;;5074639;28;20460;-54
2024/01/14 02:30:54;;;;;;;6.93;3.87;;;;;;;;;;5074581;28;20438;-54
2024/01/14 02:33:21;;;;;;;9.53;3.43;;;;;;;;;;5074455;28;20210;-54
2024/01/14 02:35:47;;;;;;;6.50;3.53;;;;;;;;;;5074486;28;20450;-54
2024/01/14 02:38:13;;;;;;;8.10;3.50;;;;;;;;;;5074285;28;20460;-54
2024/01/14 02:40:39;;;;;;;9.50;3.30;;;;;;;;;;5074173;28;20210;-54
2024/01/14 02:43:07;;;;;;;4.67;2.37;;;;;;;;;;5074096;28;20203;-54
2024/01/14 02:45:33;;;;;;;5.57;2.67;;;;;;;;;;5074244;28;20485;-55
2024/01/14 02:47:59;;;;;;;5.33;2.90;;;;;;;;;;5074231;28;20425;-54
2024/01/14 02:50:25;;;;;;;9.73;3.00;;;;;;;;;;5074163;28;20804;-54
2024/01/14 02:52:51;;;;;;;6.03;2.90;;;;;;;;;;5074061;28;20199;-54
2024/01/14 02:55:17;;;;;;;9.40;3.10;;;;;;;;;;5073900;28;20684;-54
2024/01/14 02:57:43;;;;;;;7.40;3.43;;;;;;;;;;5073981;28;20204;-54
2024/01/14 03:00:11;;;;;;;7.20;3.20;;;;;;;;;;5073888;28;20441;-54
2024/01/14 03:02:38;;;;;;;8.10;3.20;;;;;;;;;;5073858;28;20200;-54
2024/01/14 03:05:04;;;;;;;6.40;2.73;;;;;;;;;;5073612;28;20479;-54
2024/01/14 03:07:30;;;;;;;6.90;3.47;;;;;;;;;;5073686;28;20932;-54
2024/01/14 03:09:56;;;;;;;8.50;3.27;;;;;;;;;;5073695;28;20426;-54
2024/01/14 03:12:22;;;;;;;7.67;3.20;;;;;;;;;;5073425;28;20235;-54
2024/01/14 03:14:48;;;;;;;4.70;3.00;;;;;;;;;;5073472;28;20210;-54
2024/01/14 03:17:15;;;;;;;4.33;3.23;;;;;;;;;;5073450;28;20277;-54
2024/01/14 03:19:41;;;;;;;7.97;3.10;;;;;;;;;;5073549;28;20203;-54
2024/01/14 03:22:07;;;;;;;4.57;3.20;;;;;;;;;;5073213;28;20444;-54
2024/01/14 03:24:33;;;;;;;5.27;2.83;;;;;;;;;;5073335;28;20276;-54
2024/01/14 03:26:59;;;;;;;4.67;2.77;;;;;;;;;;5073618;28;20191;-54
2024/01/14 03:29:25;;;;;;;5.53;3.10;;;;;;;;;;5073182;28;20229;-53
2024/01/14 03:31:51;;;;;;;8.17;3.53;;;;;;;;;;5073251;28;20227;-54
2024/01/14 03:34:18;;;;;;;8.27;3.30;;;;;;;;;;5073115;28;20540;-54
2024/01/14 03:36:44;;;;;;;4.87;2.80;;;;;;;;;;5072244;28;20214;-54
2024/01/14 03:39:10;;;;;;;3.73;2.83;;;;;;;;;;5073286;28;20425;-54
2024/01/14 03:41:36;;;;;;;4.60;2.90;;;;;;;;;;5072975;28;20192;-53
2024/01/14 03:44:02;;;;;;;4.23;2.73;;;;;;;;;;5072898;28;20243;-53
2024/01/14 03:46:28;;;;;;;7.40;3.50;;;;;;;;;;5072962;28;20469;-53
2024/01/14 03:48:54;;;;;;;5.70;3.03;;;;;;;;;;5072799;28;20725;-53
2024/01/14 03:51:22;;;;;;;7.97;3.00;;;;;;;;;;5072869;28;20529;-53
2024/01/14 03:53:48;;;;;;;7.17;3.00;;;;;;;;;;5072770;28;20279;-53
2024/01/14 03:56:14;;;;;;;10.80;3.57;;;;;;;;;;5072692;28;20872;-53
2024/01/14 03:58:40;;;;;;;8.07;3.43;;;;;;;;;;5072763;28;20200;-53
2024/01/14 04:01:06;;;;;;;5.83;2.53;;;;;;;;;;5072558;28;20195;-53
2024/01/14 04:03:32;;;;;;;6.50;3.07;;;;;;;;;;5072481;28;20512;-54
2024/01/14 04:05:58;;;;;;;6.10;2.83;;;;;;;;;;5072700;28;20666;-53
2024/01/14 04:08:25;;;;;;;6.80;2.67;;;;;;;;;;5072431;28;20723;-54
2024/01/14 04:10:51;;;;;;;5.77;2.60;;;;;;;;;;5072297;28;20477;-53
2024/01/14 04:13:17;;;;;;;3.70;2.60;;;;;;;;;;5071103;28;20449;-54
2024/01/14 04:15:43;;;;;;;8.43;3.33;;;;;;;;;;5072467;28;20192;-54
2024/01/14 04:18:09;;;;;;;4.90;3.37;;;;;;;;;;5072191;28;20211;-54
2024/01/14 04:20:35;;;;;;;7.53;3.20;;;;;;;;;;5072276;28;20425;-54
2024/01/14 04:23:01;;;;;;;6.43;3.87;;;;;;;;;;5072329;28;20253;-54
2024/01/14 04:25:29;;;;;;;7.07;3.80;;;;;;;;;;5072014;28;20227;-54
2024/01/14 04:27:54;;;;;;;6.57;4.10;;;;;;;;;;5072129;28;20434;-54
2024/01/14 04:30:20;;;;;;;8.83;4.17;;;;;;;;;;5071977;28;20460;-54
2024/01/14 04:32:46;;;;;;;6.40;4.23;;;;;;;;;;5061858;28;20287;-61
2024/01/14 04:35:12;;;;;;;7.37;4.17;;;;;;;;;;5060079;28;20221;-54
2024/01/14 04:37:38;;;;;;;4.17;3.00;;;;;;;;;;5060039;28;20190;-54
2024/01/14 04:40:05;;;;;;;7.93;2.97;;;;;;;;;;5056595;28;20437;-54
2024/01/14 04:42:32;;;;;;;5.47;2.97;;;;;;;;;;5058430;28;20664;-54
2024/01/14 04:44:58;;;;;;;4.10;2.30;;;;;;;;;;5058264;28;20476;-54
2024/01/14 04:47:25;;;;;;;8.27;3.47;;;;;;;;;;5058031;28;20430;-54
2024/01/14 04:49:50;;;;;;;7.07;2.70;;;;;;;;;;5059677;28;20206;-54
2024/01/14 04:52:16;;;;;;;5.13;2.30;;;;;;;;;;5058163;28;20433;-54
2024/01/14 04:54:42;;;;;;;4.27;2.53;;;;;;;;;;5059972;28;20662;-54
2024/01/14 04:57:08;;;;;;;6.07;2.30;;;;;;;;;;5058047;28;20290;-54
2024/01/14 04:59:36;;;;;;;6.10;2.40;;;;;;;;;;5058038;28;20668;-54
2024/01/14 05:02:02;;;;;;;4.43;2.23;;;;;;;;;;5058182;28;20434;-54
2024/01/14 05:04:28;;;;;;;6.53;2.67;;;;;;;;;;5059764;28;20487;-54
2024/01/14 05:06:54;;;;;;;4.30;2.00;;;;;;;;;;5059716;28;20282;-53
2024/01/14 05:09:21;;;;;;;5.03;2.20;;;;;;;;;;5058067;28;20442;-54
2024/01/14 05:11:47;;;;;;;7.00;2.60;;;;;;;;;;5057828;28;20553;-53
2024/01/14 05:14:13;;;;;;;6.47;2.53;;;;;;;;;;5058094;28;20505;-54
2024/01/14 05:16:41;;;;;;;5.97;2.20;;;;;;;;;;5058029;28;20579;-53
2024/01/14 05:19:06;;;;;;;4.60;1.93;;;;;;;;;;5058062;28;20584;-53
2024/01/14 05:21:32;;;;;;;4.30;2.20;;;;;;;;;;5059647;28;20441;-53
2024/01/14 05:23:59;;;;;;;4.27;1.93;;;;;;;;;;5056491;28;20333;-54
2024/01/14 05:26:25;;;;;;;5.10;2.40;;;;;;;;;;5059474;28;20243;-53
2024/01/14 05:28:51;;;;;;;5.67;2.03;;;;;;;;;;5057888;28;20485;-53
2024/01/14 05:31:17;;;;;;;6.77;2.33;;;;;;;;;;5057707;28;20196;-53
2024/01/14 05:33:44;;;;;;;6.30;2.43;;;;;;;;;;5057933;28;20464;-53
2024/01/14 05:36:10;;;;;;;11.53;2.80;;;;;;;;;;5059385;28;20203;-52
2024/01/14 05:38:36;;;;;;;5.40;2.00;;;;;;;;;;5055770;28;20442;-54
2024/01/14 05:41:02;;;;;;;4.03;2.10;;;;;;;;;;5059386;28;20195;-53
2024/01/14 05:43:28;;;;;;;7.57;2.33;;;;;;;;;;5057735;28;20200;-52
2024/01/14 05:45:54;;;;;;;3.97;2.23;;;;;;;;;;5057549;28;20485;-53
2024/01/14 05:48:21;;;;;;;6.60;2.30;;;;;;;;;;5057649;28;20188;-53
2024/01/14 05:50:48;;;;;;;6.57;2.10;;;;;;;;;;5057708;28;20211;-53
2024/01/14 05:53:14;;;;;;;7.63;2.73;;;;;;;;;;5059236;28;20449;-53
2024/01/14 05:55:40;;;;;;;4.93;2.40;;;;;;;;;;5056921;28;20438;-53
2024/01/14 05:58:06;;;;;;;5.57;1.90;;;;;;;;;;5059307;28;20196;-53
2024/01/14 06:00:32;;;;;;;10.93;3.07;;;;;;;;;;5058741;28;20212;-52
2024/01/14 06:02:58;;;;;;;4.80;1.90;;;;;;;;;;5061232;28;20437;-52
2024/01/14 06:05:24;;;;;;;6.03;2.33;;;;;;;;;;5061059;28;20832;-53
2024/01/14 06:07:51;;;;;;;5.13;2.10;;;;;;;;;;5061095;28;20561;-53
2024/01/14 06:10:17;;;;;;;7.80;2.10;;;;;;;;;;5060948;28;20211;-53
2024/01/14 06:12:43;;;;;;;5.93;2.17;;;;;;;;;;5062750;28;20465;-53
2024/01/14 06:15:09;;;;;;;8.40;2.40;;;;;;;;;;5062690;28;20183;-53
2024/01/14 06:17:35;;;;;;;5.03;2.17;;;;;;;;;;5062342;28;20694;-52
2024/01/14 06:20:03;;;;;;;8.90;3.17;;;;;;;;;;5061012;28;20440;-52
2024/01/14 06:22:29;;;;;;;6.80;2.53;;;;;;;;;;5060794;28;20207;-52
2024/01/14 06:24:56;;;;;;;6.10;2.30;;;;;;;;;;5060636;28;20485;-53
2024/01/14 06:27:22;;;;;;;9.27;3.17;;;;;;;;;;5058986;28;20226;-53
2024/01/14 06:29:48;;;;;;;9.63;2.90;;;;;;;;;;5062478;28;20916;-52
2024/01/14 06:32:14;;;;;;;7.67;2.27;;;;;;;;;;5062735;28;20203;-52
2024/01/14 06:34:42;;;;;;;6.77;2.60;;;;;;;;;;5060809;28;20188;-52
2024/01/14 06:37:08;;;;;;;7.90;2.40;;;;;;;;;;5060667;28;20225;-53
2024/01/14 06:39:34;;;;;;;6.83;2.20;;;;;;;;;;5060479;28;20422;-52
2024/01/14 06:42:01;;;;;;;7.47;2.43;;;;;;;;;;5060519;28;20955;-53
2024/01/14 06:44:27;;;;;;;11.23;2.97;;;;;;;;;;5060365;28;20465;-52
2024/01/14 06:46:53;;;;;;;7.83;2.60;;;;;;;;;;5060509;28;20792;-53
2024/01/14 06:49:19;;;;;;;8.43;2.40;;;;;;;;;;5060392;28;20195;-53
2024/01/14 06:51:46;;;;;;;4.93;2.23;;;;;;;;;;5060624;28;20199;-53
2024/01/14 06:54:12;;;;;;;6.30;2.60;;;;;;;;;;5060465;28;20207;-53
2024/01/14 06:56:44;;;;;;;6.37;2.27;;;;;;;;;;5060173;28;20426;-53
2024/01/14 06:59:13;;;;;;;9.70;3.40;;;;;;;;;;5060087;28;20912;-52
2024/01/14 07:01:39;;;;;;;5.40;2.60;;;;;;;;;;5060028;28;20499;-52
2024/01/14 07:04:05;;;;;;;5.90;2.77;;;;;;;;;;5061779;28;20850;-52
2024/01/14 07:06:31;;;;;;;3.10;2.50;;;;;;;;;;5061715;28;20230;-53
2024/01/14 07:08:57;;;;;;;6.63;2.80;;;;;;;;;;5068644;28;20196;-53
2024/01/14 07:11:23;;;;;;;7.23;2.60;;;;;;;;;;5073202;28;20293;-53
2024/01/14 07:13:49;;;;;;;7.03;2.93;;;;;;;;;;5073584;28;20282;-52
2024/01/14 07:16:16;;;;;;;12.43;3.70;;;;;;;;;;5073498;28;20249;-53
2024/01/14 07:18:42;;;;;;;8.43;3.10;;;;;;;;;;5073523;28;20593;-53
2024/01/14 07:21:11;;;;;;;5.83;2.27;;;;;;;;;;5073226;28;20425;-52
2024/01/14 07:23:37;;;;;;;7.93;2.43;;;;;;;;;;5073118;28;20434;-53
2024/01/14 07:26:05;;;;;;;10.67;3.13;;;;;;;;;;5072647;28;20550;-53
2024/01/14 07:28:31;;;;;;;5.07;2.83;;;;;;;;;;5073081;28;20252;-53
2024/01/14 07:30:57;;;;;;;5.90;2.40;;;;;;;;;;5073313;28;20430;-53
2024/01/14 07:33:24;;;;;;;4.60;2.20;;;;;;;;;;5073171;28;20743;-52
2024/01/14 07:35:50;;;;;;;7.27;2.37;;;;;;;;;;5072975;28;20654;-53
2024/01/14 07:38:16;;;;;;;17.87;2.90;;;;;;;;;;5072780;28;20432;-53
2024/01/14 07:40:42;;;;;;;5.93;2.30;;;;;;;;;;5073148;28;20441;-53
2024/01/14 07:43:08;;;;;;;6.07;2.13;;;;;;;;;;5072575;28;20196;-54
2024/01/14 07:45:34;;;;;;;7.80;2.40;;;;;;;;;;5072713;28;20480;-53
2024/01/14 07:48:02;;;;;;;12.53;2.73;;;;;;;;;;5073123;28;20536;-53
2024/01/14 07:50:29;;;;;;;10.77;2.80;;;;;;;;;;5072840;28;20599;-53
2024/01/14 07:52:55;;;;;;;8.10;3.37;;;;;;;;;;5072813;28;20441;-53
2024/01/14 07:55:21;;;;;;;8.93;2.50;;;;;;;;;;5072623;28;20445;-52
2024/01/14 07:57:47;;;;;;;10.53;3.00;;;;;;;;;;5072839;28;20257;-53
2024/01/14 08:00:14;;;;;;;8.93;2.10;;;;;;;;;;5072745;28;20434;-53
2024/01/14 08:02:40;;;;;;;9.67;3.07;;;;;;;;;;5072475;28;20219;-52
2024/01/14 08:05:06;;;;;;;7.67;2.70;;;;;;;;;;5072335;28;20521;-53
2024/01/14 08:07:33;;;;;;;4.90;2.10;;;;;;;;;;5072362;28;20196;-53
2024/01/14 08:09:59;;;;;;;6.83;2.63;;;;;;;;;;5072404;28;20453;-53
2024/01/14 08:12:25;;;;;;;8.90;2.50;;;;;;;;;;5072183;28;20478;-53
2024/01/14 08:14:51;;;;;;;9.17;2.57;;;;;;;;;;5072283;28;20231;-53
2024/01/14 08:17:17;;;;;;;6.43;2.27;;;;;;;;;;5072228;28;20230;-53
2024/01/14 08:19:44;;;;;;;10.23;2.30;;;;;;;;;;5072217;28;20207;-52
2024/01/14 08:22:10;;;;;;;4.53;2.03;;;;;;;;;;5072135;28;20743;-52
2024/01/14 08:24:37;;;;;;;6.33;3.27;;;;;;;;;;5071458;28;20485;-52
2024/01/14 08:27:03;;;;;;;9.67;2.73;;;;;;;;;;5072041;28;20550;-52
2024/01/14 08:29:29;;;;;;;7.37;2.93;;;;;;;;;;5071977;28;20528;-52
2024/01/14 08:31:55;;;;;;;5.30;2.33;;;;;;;;;;5072110;28;20222;-52
2024/01/14 08:34:24;;;;;;;7.80;2.73;;;;;;;;;;5071902;28;20199;-54
2024/01/14 08:36:50;;;;;;;9.30;3.03;;;;;;;;;;5071916;28;20223;-54
2024/01/14 08:39:16;;;;;;;9.30;2.93;;;;;;;;;;5071990;28;20469;-52
2024/01/14 08:41:44;;;;;;;5.57;2.40;;;;;;;;;;5065123;28;20195;-54
2024/01/14 08:44:10;;;;;;;7.73;3.00;;;;;;;;;;5058353;28;20207;-54
2024/01/14 08:46:39;;;;;;;10.47;3.10;;;;;;;;;;5058198;28;20434;-54
2024/01/14 08:49:05;;;;;;;6.73;3.07;;;;;;;;;;5058270;28;20809;-52
2024/01/14 08:51:31;;;;;;;10.33;3.57;;;;;;;;;;5059826;28;20907;-54
2024/01/14 08:54:00;;;;;;;10.90;4.10;;;;;;;;;;5057710;28;20179;-55
2024/01/14 08:56:27;;;;;;;7.80;3.20;;;;;;;;;;5059397;28;20795;-54
2024/01/14 08:58:54;;;;;;;7.70;3.57;;;;;;;;;;5057939;28;20445;-54
2024/01/14 09:01:21;;;;;;;7.20;3.63;;;;;;;;;;5057879;28;20801;-55
2024/01/14 09:03:47;;;;;;;9.97;3.47;;;;;;;;;;5058060;28;20449;-54
2024/01/14 09:06:13;;;;;;;5.93;3.37;;;;;;;;;;5057957;28;20469;-54
2024/01/14 09:08:39;;;;;;;8.83;3.77;;;;;;;;;;5059700;28;20199;-54
2024/01/14 09:11:05;;;;;;;8.67;3.80;;;;;;;;;;5057319;28;20250;-54
2024/01/14 09:13:31;;;;;;;7.73;4.00;;;;;;;;;;5057916;28;20470;-54
2024/01/14 09:15:58;;;;;;;10.47;4.30;;;;;;;;;;5057797;28;20187;-53
2024/01/14 09:18:24;;;;;;;10.47;4.20;;;;;;;;;;5057894;28;20312;-54
2024/01/14 09:20:50;;;;;;;9.07;4.30;;;;;;;;;;5057507;28;20469;-54
2024/01/14 09:23:16;;;;;;;8.83;3.80;;;;;;;;;;5057890;28;20203;-54
2024/01/14 09:25:42;;;;;;;5.83;3.60;;;;;;;;;;5057423;28;20261;-54
2024/01/14 09:28:08;;;;;;;9.57;4.17;;;;;;;;;;5057524;28;20238;-54
2024/01/14 09:30:34;;;;;;;11.27;3.93;;;;;;;;;;5059127;28;20215;-54
2024/01/14 09:33:01;;;;;;;7.53;3.90;;;;;;;;;;5058059;28;20277;-53
2024/01/14 09:35:27;;;;;;;6.73;3.87;;;;;;;;;;5058903;28;20202;-53
2024/01/14 09:37:53;;;;;;;9.43;4.10;;;;;;;;;;5061629;28;20441;-53
2024/01/14 09:40:19;;;;;;;7.27;3.70;;;;;;;;;;5061419;28;20279;-54
2024/01/14 09:42:45;;;;;;;7.70;3.90;;;;;;;;;;5061821;28;20524;-53
2024/01/14 09:45:11;;;;;;;7.40;3.90;;;;;;;;;;5061429;28;20292;-53
2024/01/14 09:47:38;;;;;;;8.20;4.17;;;;;;;;;;5061259;28;20445;-53
2024/01/14 09:50:07;;;;;;;5.67;4.17;;;;;;;;;;5061306;28;20445;-53
2024/01/14 09:52:33;;;;;;;8.67;4.00;;;;;;;;;;5062891;28;20463;-53
2024/01/14 09:54:59;;;;;;;8.53;4.20;;;;;;;;;;5062959;28;20438;-53
2024/01/14 09:57:25;;;;;;;7.83;4.40;;;;;;;;;;5061072;28;20203;-53
2024/01/14 09:59:51;;;;;;;13.47;5.20;;;;;;;;;;5062754;28;21012;-53
2024/01/14 10:02:18;;;;;;;9.40;4.93;;;;;;;;;;5062937;28;20520;-52
2024/01/14 10:04:44;;;;;;;7.00;4.63;;;;;;;;;;5060971;28;20496;-53
2024/01/14 10:07:12;;;;;;;7.93;4.87;;;;;;;;;;5062703;28;20881;-53
2024/01/14 10:09:40;;;;;;;8.23;5.20;;;;;;;;;;5060738;28;20203;-53
2024/01/14 10:12:08;;;;;;;9.63;5.20;;;;;;;;;;5062500;28;20469;-53
2024/01/14 10:14:34;;;;;;;7.37;5.03;;;;;;;;;;5062420;28;20437;-53
2024/01/14 10:17:00;;;;;;;8.70;4.70;;;;;;;;;;5060915;28;20449;-53
2024/01/14 10:19:26;;;;;;;7.23;4.60;;;;;;;;;;5060660;28;21778;-53
2024/01/14 10:21:53;;;;;;;9.60;5.20;;;;;;;;;;5062236;28;20187;-53
2024/01/14 10:24:20;;;;;;;9.20;5.47;;;;;;;;;;5060529;28;20242;-53
2024/01/14 10:26:46;;;;;;;5.57;4.60;;;;;;;;;;5062566;28;20491;-52
2024/01/14 10:29:14;;;;;;;7.07;5.37;;;;;;;;;;5060635;28;20849;-52
2024/01/14 10:31:40;;;;;;;13.07;5.47;;;;;;;;;;5062106;28;20215;-52
2024/01/14 10:34:06;;;;;;;8.43;5.40;;;;;;;;;;5060391;28;20450;-53
2024/01/14 10:36:32;;;;;;;9.03;4.87;;;;;;;;;;5060318;28;20196;-53
2024/01/14 10:38:59;;;;;;;7.90;5.70;;;;;;;;;;5060514;28;20457;-53
2024/01/14 10:41:26;;;;;;;7.57;4.80;;;;;;;;;;5062098;28;20436;-51
2024/01/14 10:43:52;;;;;;;7.23;5.13;;;;;;;;;;5060129;28;20950;-53
2024/01/14 10:46:18;;;;;;;6.00;4.90;;;;;;;;;;5059582;28;20469;-53
2024/01/14 10:48:48;;;;;;;6.23;4.87;;;;;;;;;;5063453;28;20199;-52
2024/01/14 10:51:17;;;;;;;6.07;4.80;;;;;;;;;;5061827;28;20985;-52
2024/01/14 10:53:48;;;;;;;5.73;4.77;;;;;;;;;;5060054;28;20437;-52
2024/01/14 10:56:16;;;;;;;5.73;4.43;;;;;;;;;;5061881;28;20445;-53
2024/01/14 10:58:45;;;;;;;6.97;5.30;;;;;;;;;;5061659;28;20434;-54
2024/01/14 11:01:13;;;;;;;7.07;5.30;;;;;;;;;;5060255;28;20986;-54
2024/01/14 11:03:39;;;;;;;6.97;6.23;;;;;;;;;;5059685;28;20476;-54
2024/01/14 11:06:06;;;;;;;7.80;6.30;;;;;;;;;;5060059;28;20493;-54
2024/01/14 11:08:32;;;;;;;8.43;6.80;;;;;;;;;;5061655;28;20528;-54
2024/01/14 11:10:59;;;;;;;9.53;6.83;;;;;;;;;;5061357;28;20513;-54
2024/01/14 11:13:26;;;;;;;8.63;6.80;;;;;;;;;;5061422;28;20438;-54
2024/01/14 11:15:56;;;;;;;8.23;6.90;;;;;;;;;;5061165;28;20499;-54
2024/01/14 11:18:24;;;;;;;9.43;6.37;;;;;;;;;;5059756;28;20454;-54
2024/01/14 11:20:53;;;;;;;7.03;6.27;;;;;;;;;;5059552;28;21185;-55
2024/01/14 11:23:21;;;;;;;7.37;6.37;;;;;;;;;;5061324;28;20434;-55
2024/01/14 11:25:49;;;;;;;7.90;6.37;;;;;;;;;;5061184;28;20485;-55
2024/01/14 11:28:15;;;;;;;9.03;7.00;;;;;;;;;;5059704;28;20450;-55
2024/01/14 11:30:49;;;;;;;9.33;7.37;;;;;;;;;;5059544;28;20488;-55
2024/01/14 11:33:32;;;;;;;10.07;6.83;;;;;;;;;;5061381;28;20199;-54
2024/01/14 11:36:00;;;;;;;8.77;7.07;;;;;;;;;;5059286;28;20985;-55
2024/01/14 11:38:33;;;;;;;9.77;7.00;;;;;;;;;;5062690;28;20512;-55
2024/01/14 11:40:59;;;;;;;9.50;7.20;;;;;;;;;;5059183;28;20426;-55
2024/01/14 11:43:25;;;;;;;8.17;6.63;;;;;;;;;;5060987;28;20788;-55
2024/01/14 11:45:51;;;;;;;10.00;7.63;;;;;;;;;;5060790;28;20962;-55
2024/01/14 11:48:18;;;;;;;8.50;6.80;;;;;;;;;;5059157;28;20457;-55
2024/01/14 11:50:50;;;;;;;9.37;7.60;;;;;;;;;;5059018;28;20241;-55
2024/01/14 11:53:16;;;;;;;9.10;7.73;;;;;;;;;;5059135;28;20499;-55
2024/01/14 11:55:42;;;;;;;11.53;8.07;;;;;;;;;;5058780;28;20438;-55
2024/01/14 11:58:10;;;;;;;9.40;7.23;;;;;;;;;;5057867;28;20952;-55
2024/01/14 12:00:37;;;;;;;9.50;8.13;;;;;;;;;;5059004;28;20972;-55
2024/01/14 12:03:04;;;;;;;9.20;7.37;;;;;;;;;;5063723;28;20462;-55
2024/01/14 12:05:30;;;;;;;9.83;8.23;;;;;;;;;;5072258;28;20557;-55
2024/01/14 12:07:59;;;;;;;9.03;7.50;;;;;;;;;;5072243;28;20448;-55
2024/01/14 12:10:25;;;;;;;10.07;8.07;;;;;;;;;;5072265;28;20470;-55
2024/01/14 12:12:51;;;;;;;10.20;8.30;;;;;;;;;;5071929;28;20626;-54
2024/01/14 12:15:17;;;;;;;9.97;8.00;;;;;;;;;;5072266;28;20441;-54
2024/01/14 12:17:52;;;;;;;8.60;7.50;;;;;;;;;;5072003;28;20450;-54
2024/01/14 12:20:21;;;;;;;9.83;7.63;;;;;;;;;;5071892;28;20861;-55
2024/01/14 12:22:47;;;;;;;10.50;8.00;;;;;;;;;;5069359;28;20442;-55
2024/01/14 12:25:14;;;;;;;11.17;8.40;;;;;;;;;;5072386;28;20534;-54
2024/01/14 12:27:41;;;;;;;10.63;8.53;;;;;;;;;;5072494;28;20199;-54
2024/01/14 12:30:08;;;;;;;11.87;8.63;;;;;;;;;;5072410;28;21139;-54
2024/01/14 12:32:34;;;;;;;10.03;7.87;;;;;;;;;;5071861;28;21034;-54
2024/01/14 12:35:00;;;;;;;12.37;8.93;;;;;;;;;;5072166;28;20430;-54
2024/01/14 12:37:26;;;;;;;9.73;8.23;;;;;;;;;;5072153;28;20437;-53
2024/01/14 12:39:52;;;;;;;10.77;8.53;;;;;;;;;;5071872;28;20211;-53
2024/01/14 12:42:20;;;;;;;12.20;9.67;;;;;;;;;;5072042;28;20278;-54
2024/01/14 12:44:46;;;;;;;11.77;8.80;;;;;;;;;;5071798;28;20554;-54
2024/01/14 12:47:12;;;;;;;13.73;9.73;;;;;;;;;;5072008;28;20472;-53
2024/01/14 12:49:39;;;;;;;9.97;8.87;;;;;;;;;;5072109;28;20440;-53
2024/01/14 12:52:05;;;;;;;11.70;9.27;;;;;;;;;;5071738;28;20650;-54
2024/01/14 12:54:32;;;;;;;12.50;8.83;;;;;;;;;;5071854;28;20456;-53
2024/01/14 12:56:58;;;;;;;11.57;9.40;;;;;;;;;;5071726;28;20434;-54
2024/01/14 12:59:26;;;;;;;10.37;8.07;;;;;;;;;;5071908;28;20468;-53
2024/01/14 13:01:52;;;;;;;11.27;8.77;;;;;;;;;;5071760;28;20990;-54
2024/01/14 13:04:18;;;;;;;9.73;8.17;;;;;;;;;;5071778;28;20445;-54
2024/01/14 13:06:46;;;;;;;12.23;8.40;;;;;;;;;;5071689;28;20191;-54
2024/01/14 13:09:13;;;;;;;10.33;8.70;;;;;;;;;;5071544;28;20196;-53
2024/01/14 13:11:39;;;;;;;10.50;7.83;;;;;;;;;;5071406;28;20477;-53
2024/01/14 13:14:05;;;;;;;9.77;8.57;;;;;;;;;;5071834;28;20442;-53
2024/01/14 13:16:33;;;;;;;9.60;7.97;;;;;;;;;;5071609;28;20741;-53
2024/01/14 13:18:59;;;;;;;10.03;7.73;;;;;;;;;;5071413;28;20200;-53
2024/01/14 13:21:25;;;;;;;9.43;7.07;;;;;;;;;;5071637;28;20508;-53
2024/01/14 13:23:51;;;;;;;9.37;7.67;;;;;;;;;;5071367;28;20696;-53
2024/01/14 13:26:17;;;;;;;9.80;7.97;;;;;;;;;;5071303;28;20227;-53
2024/01/14 13:28:44;;;;;;;13.20;8.00;;;;;;;;;;5071257;28;20796;-53
2024/01/14 13:31:10;;;;;;;9.67;7.73;;;;;;;;;;5069938;28;20669;-54
2024/01/14 13:33:37;;;;;;;8.70;7.47;;;;;;;;;;5071211;28;20484;-53
2024/01/14 13:36:03;;;;;;;11.13;7.53;;;;;;;;;;5070973;28;20590;-54
2024/01/14 13:38:29;;;;;;;8.17;7.20;;;;;;;;;;5071264;28;20520;-53
2024/01/14 13:40:55;;;;;;;8.90;7.20;;;;;;;;;;5071025;28;20525;-53
2024/01/14 13:43:21;;;;;;;9.87;8.10;;;;;;;;;;5071016;28;20237;-54
2024/01/14 13:45:47;;;;;;;9.10;7.90;;;;;;;;;;5070891;28;20231;-53
2024/01/14 13:48:14;;;;;;;9.33;7.27;;;;;;;;;;5071189;28;20187;-53
2024/01/14 13:50:41;;;;;;;8.40;7.37;;;;;;;;;;5070925;28;20222;-54
2024/01/14 13:53:07;;;;;;;18.60;13.53;;;;;;;;;;5071300;28;20507;-53
2024/01/14 13:55:33;;;;;;;9.30;8.13;;;;;;;;;;5070819;28;20434;-52
2024/01/14 13:57:59;;;;;;;11.23;8.47;;;;;;;;;;5070908;28;20681;-52
2024/01/14 14:00:25;;;;;;;15.77;10.70;;;;;;;;;;5070890;28;20190;-53
2024/01/14 14:02:51;;;;;;;66.87;37.00;;;;;;;;;;5070691;28;20491;-53
2024/01/14 14:05:17;;;;;;;12.17;9.40;;;;;;;;;;5070859;28;20575;-53
2024/01/14 14:07:45;;;;;;;13.67;9.40;;;;;;;;;;5071174;28;20458;-53
2024/01/14 14:10:11;;;;;;;10.03;7.70;;;;;;;;;;5071197;28;20663;-53
2024/01/14 14:12:37;;;;;;;20.53;14.40;;;;;;;;;;5070981;28;20470;-53
2024/01/14 14:15:03;;;;;;;11.37;8.03;;;;;;;;;;5070987;28;20607;-53
2024/01/14 14:17:30;;;;;;;16.80;12.23;;;;;;;;;;5063585;28;20482;-53
2024/01/14 14:19:56;;;;;;;13.63;10.53;;;;;;;;;;5058974;28;20521;-53
2024/01/14 14:22:22;;;;;;;11.67;9.03;;;;;;;;;;5059809;28;20457;-53
2024/01/14 14:24:49;;;;;;;12.07;8.43;;;;;;;;;;5062387;28;20496;-54
2024/01/14 14:27:16;;;;;;;11.10;8.40;;;;;;;;;;5062778;28;20195;-53
2024/01/14 14:29:42;;;;;;;20.93;14.03;;;;;;;;;;5060812;28;20799;-54
2024/01/14 14:32:08;;;;;;;22.30;13.47;;;;;;;;;;5060741;28;20425;-54
2024/01/14 14:34:34;;;;;;;10.30;7.53;;;;;;;;;;5064170;28;20196;-54